createdAt,value
2022-12-29T00:02:01.207Z,3.47
2022-12-29T00:04:29.717Z,1.13
2022-12-29T00:06:57.022Z,1.30
2022-12-29T00:09:24.156Z,1.30
2022-12-29T00:11:51.299Z,1.83
2022-12-29T00:14:22.768Z,1.60
2022-12-29T00:16:52.909Z,1.77
2022-12-29T00:19:20.054Z,1.30
2022-12-29T00:21:48.515Z,1.50
2022-12-29T00:24:16.883Z,1.97
2022-12-29T00:26:44.027Z,1.40
2022-12-29T00:29:11.136Z,1.90
2022-12-29T00:31:38.249Z,1.30
2022-12-29T00:34:05.450Z,1.77
2022-12-29T00:36:33.583Z,1.50
2022-12-29T00:39:03.590Z,1.57
2022-12-29T00:41:30.691Z,1.57
2022-12-29T00:43:57.822Z,1.90
2022-12-29T00:46:25.108Z,1.60
2022-12-29T00:48:52.276Z,2.50
2022-12-29T00:51:19.418Z,1.90
2022-12-29T00:53:46.571Z,1.23
2022-12-29T00:56:15.090Z,1.50
2022-12-29T00:58:42.215Z,1.63
2022-12-29T01:01:10.227Z,0.90
2022-12-29T01:03:38.464Z,1.17
2022-12-29T01:06:08.259Z,1.07
2022-12-29T01:08:35.936Z,0.97
2022-12-29T01:11:04.493Z,0.90
2022-12-29T01:13:33.240Z,1.20
2022-12-29T01:16:00.492Z,1.53
2022-12-29T01:18:28.157Z,0.87
2022-12-29T01:21:00.159Z,0.70
2022-12-29T01:23:27.328Z,0.83
2022-12-29T01:25:54.472Z,0.80
2022-12-29T01:28:25.912Z,0.70
2022-12-29T01:30:54.883Z,1.17
2022-12-29T01:33:22.006Z,0.97
2022-12-29T01:35:49.693Z,0.70
2022-12-29T01:38:16.866Z,0.90
2022-12-29T01:40:46.315Z,1.63
2022-12-29T01:43:14.342Z,1.80
2022-12-29T01:45:43.906Z,1.57
2022-12-29T01:48:13.428Z,1.00
2022-12-29T01:50:42.445Z,0.80
2022-12-29T01:53:12.690Z,2.00
2022-12-29T01:55:41.989Z,0.90
2022-12-29T01:58:11.398Z,2.30
2022-12-29T02:00:38.937Z,0.77
2022-12-29T02:03:06.974Z,2.20
2022-12-29T02:05:39.481Z,3.80
2022-12-29T02:08:06.898Z,1.47
2022-12-29T02:10:36.371Z,1.60
2022-12-29T02:13:03.630Z,0.93
2022-12-29T02:15:37.731Z,2.40
2022-12-29T02:18:12.011Z,1.10
2022-12-29T02:20:54.900Z,1.47
2022-12-29T02:23:33.235Z,1.23
2022-12-29T02:26:15.444Z,1.80
2022-12-29T02:29:00.388Z,1.80
2022-12-29T02:31:31.360Z,1.33
2022-12-29T02:34:03.833Z,2.50
2022-12-29T02:36:35.452Z,1.40
2022-12-29T02:39:07.032Z,2.20
2022-12-29T02:41:35.345Z,2.90
2022-12-29T02:44:05.860Z,1.60
2022-12-29T02:46:37.974Z,1.30
2022-12-29T02:49:07.746Z,1.53
2022-12-29T02:51:37.437Z,3.77
2022-12-29T02:54:04.819Z,1.77
2022-12-29T02:56:31.979Z,2.70
2022-12-29T02:58:59.083Z,1.67
2022-12-29T03:01:31.455Z,0.93
2022-12-29T03:04:06.113Z,3.33
2022-12-29T03:06:37.099Z,5.53
2022-12-29T03:09:18.397Z,2.63
2022-12-29T03:11:50.068Z,1.10
2022-12-29T03:14:20.539Z,3.20
2022-12-29T03:16:49.205Z,4.20
2022-12-29T03:19:21.347Z,1.43
2022-12-29T03:21:50.984Z,1.60
2022-12-29T03:24:21.486Z,1.10
2022-12-29T03:26:49.375Z,1.73
2022-12-29T03:29:18.573Z,1.00
2022-12-29T03:31:47.782Z,3.77
2022-12-29T03:34:15.515Z,1.23
2022-12-29T03:36:48.195Z,2.03
2022-12-29T03:39:15.423Z,1.13
2022-12-29T03:41:44.026Z,1.40
2022-12-29T03:44:11.254Z,1.90
2022-12-29T03:46:38.437Z,5.13
2022-12-29T03:49:05.645Z,1.10
2022-12-29T03:51:32.837Z,0.90
2022-12-29T03:54:01.441Z,1.53
2022-12-29T03:56:28.589Z,1.40
2022-12-29T03:58:55.773Z,1.37
2022-12-29T04:01:31.925Z,1.00
2022-12-29T04:03:59.198Z,1.33
2022-12-29T04:06:26.610Z,3.00
2022-12-29T04:08:59.688Z,0.97
2022-12-29T04:11:32.812Z,1.23
2022-12-29T04:14:01.139Z,0.80
2022-12-29T04:16:29.948Z,1.57
2022-12-29T04:18:57.209Z,0.90
2022-12-29T04:21:24.346Z,1.83
2022-12-29T04:23:51.610Z,0.87
2022-12-29T04:26:18.842Z,1.03
2022-12-29T04:29:10.403Z,2.70
2022-12-29T04:31:56.683Z,2.73
2022-12-29T04:34:23.943Z,0.90
2022-12-29T04:36:51.082Z,1.37
2022-12-29T04:39:18.743Z,0.93
2022-12-29T04:41:45.838Z,0.90
2022-12-29T04:44:19.141Z,1.27
2022-12-29T04:47:11.523Z,1.10
2022-12-29T04:50:05.278Z,2.10
2022-12-29T04:52:35.290Z,2.03
2022-12-29T04:55:03.468Z,1.33
2022-12-29T04:57:30.692Z,2.30
2022-12-29T05:00:01.471Z,2.80
2022-12-29T05:02:29.111Z,1.10
2022-12-29T05:04:57.623Z,1.73
2022-12-29T05:07:25.393Z,1.80
2022-12-29T05:09:54.103Z,1.00
2022-12-29T05:12:21.341Z,1.40
2022-12-29T05:14:55.779Z,2.70
2022-12-29T05:17:24.303Z,1.00
2022-12-29T05:19:51.958Z,2.73
2022-12-29T05:22:19.568Z,1.87
2022-12-29T05:24:46.864Z,1.30
2022-12-29T05:27:14.062Z,1.40
2022-12-29T05:30:10.159Z,1.63
2022-12-29T05:32:38.609Z,2.43
2022-12-29T05:35:06.243Z,2.07
2022-12-29T05:37:34.432Z,1.20
2022-12-29T05:40:01.753Z,1.43
2022-12-29T05:42:29.188Z,3.23
2022-12-29T05:45:19.281Z,1.83
2022-12-29T05:47:56.941Z,1.20
2022-12-29T05:50:35.801Z,4.03
2022-12-29T05:53:16.439Z,4.17
2022-12-29T05:55:48.647Z,4.50
2022-12-29T05:58:16.712Z,1.20
2022-12-29T06:00:44.629Z,1.77
2022-12-29T06:03:13.391Z,4.57
2022-12-29T06:05:40.701Z,1.77
2022-12-29T06:08:07.807Z,4.13
2022-12-29T06:10:35.442Z,2.30
2022-12-29T06:13:05.411Z,1.87
2022-12-29T06:15:35.665Z,2.50
2022-12-29T06:18:04.230Z,2.80
2022-12-29T06:20:32.716Z,3.13
2022-12-29T06:22:59.881Z,3.00
2022-12-29T06:25:27.086Z,4.53
2022-12-29T06:27:54.325Z,2.73
2022-12-29T06:30:21.493Z,2.50
2022-12-29T06:32:48.646Z,1.00
2022-12-29T06:35:15.821Z,3.57
2022-12-29T06:37:48.795Z,1.27
2022-12-29T06:40:16.095Z,3.13
2022-12-29T06:43:02.145Z,0.70
2022-12-29T06:45:43.233Z,1.63
2022-12-29T06:48:10.419Z,3.07
2022-12-29T06:50:37.548Z,3.53
2022-12-29T06:53:06.075Z,1.10
2022-12-29T06:55:33.305Z,3.10
2022-12-29T06:58:00.425Z,11.27
2022-12-29T07:00:27.574Z,3.00
2022-12-29T07:02:56.189Z,4.77
2022-12-29T07:05:23.442Z,2.63
2022-12-29T07:07:50.591Z,5.37
2022-12-29T07:10:19.055Z,4.80
2022-12-29T07:12:46.182Z,2.67
2022-12-29T07:15:13.391Z,3.40
2022-12-29T07:17:41.125Z,8.97
2022-12-29T07:20:09.139Z,1.33
2022-12-29T07:22:36.253Z,1.57
2022-12-29T07:25:03.577Z,4.73
2022-12-29T07:27:32.040Z,5.70
2022-12-29T07:29:59.180Z,2.03
2022-12-29T07:32:26.305Z,2.40
2022-12-29T07:34:53.629Z,4.90
2022-12-29T07:37:20.767Z,5.50
2022-12-29T07:39:47.887Z,1.77
2022-12-29T07:42:15.006Z,6.60
2022-12-29T07:44:45.677Z,2.40
2022-12-29T07:47:17.239Z,7.27
2022-12-29T07:49:44.562Z,5.20
2022-12-29T07:52:11.749Z,2.80
2022-12-29T07:54:38.893Z,2.83
2022-12-29T07:57:06.341Z,3.10
2022-12-29T07:59:33.490Z,2.67
2022-12-29T08:02:02.535Z,1.40
2022-12-29T08:04:29.834Z,4.70
2022-12-29T08:06:56.967Z,2.30
2022-12-29T08:09:24.619Z,5.30
2022-12-29T08:11:52.193Z,3.23
2022-12-29T08:14:19.352Z,3.97
2022-12-29T08:16:46.548Z,3.53
2022-12-29T08:19:15.472Z,2.80
2022-12-29T08:21:42.623Z,4.63
2022-12-29T08:24:09.999Z,4.53
2022-12-29T08:26:37.172Z,4.00
2022-12-29T08:29:04.304Z,4.30
2022-12-29T08:31:31.482Z,2.90
2022-12-29T08:33:58.608Z,8.37
2022-12-29T08:36:27.056Z,2.10
2022-12-29T08:38:54.150Z,4.67
2022-12-29T08:41:21.301Z,3.63
2022-12-29T08:43:48.450Z,3.10
2022-12-29T08:46:15.904Z,6.77
2022-12-29T08:48:43.108Z,4.77
2022-12-29T08:51:10.620Z,6.93
2022-12-29T08:53:39.075Z,3.30
2022-12-29T08:56:06.698Z,4.00
2022-12-29T08:58:43.696Z,5.00
2022-12-29T09:01:11.900Z,6.13
2022-12-29T09:04:13.473Z,5.10
2022-12-29T09:06:26.416Z,4.67
2022-12-29T09:08:56.413Z,5.80
2022-12-29T09:11:24.808Z,2.70
2022-12-29T09:13:51.958Z,4.53
2022-12-29T09:16:19.726Z,5.93
2022-12-29T09:18:46.970Z,4.23
2022-12-29T09:21:14.540Z,4.30
2022-12-29T09:23:41.734Z,4.70
2022-12-29T09:26:10.230Z,4.73
2022-12-29T09:28:37.506Z,9.03
2022-12-29T09:31:04.939Z,3.87
2022-12-29T09:33:32.105Z,3.80
2022-12-29T09:35:59.686Z,8.80
2022-12-29T09:38:27.411Z,6.20
2022-12-29T09:40:55.777Z,7.63
2022-12-29T09:43:31.688Z,4.20
2022-12-29T09:46:02.717Z,10.13
2022-12-29T09:48:32.856Z,6.40
2022-12-29T09:51:02.005Z,7.30
2022-12-29T09:53:31.150Z,6.10
2022-12-29T09:55:59.950Z,7.10
2022-12-29T09:58:30.290Z,5.47
2022-12-29T10:01:01.763Z,6.83
2022-12-29T10:03:33.832Z,6.60
2022-12-29T10:06:06.419Z,7.00
2022-12-29T10:08:38.972Z,6.00
2022-12-29T10:11:12.445Z,9.30
2022-12-29T10:13:44.767Z,2.17
2022-12-29T10:16:14.515Z,7.60
2022-12-29T10:18:59.647Z,6.80
2022-12-29T10:21:33.930Z,7.43
2022-12-29T10:24:03.533Z,6.67
2022-12-29T10:26:32.856Z,5.27
2022-12-29T10:29:04.435Z,5.20
2022-12-29T10:31:37.640Z,2.50
2022-12-29T10:34:07.496Z,6.30
2022-12-29T10:36:36.297Z,3.80
2022-12-29T10:39:06.940Z,1.60
2022-12-29T10:41:38.173Z,4.03
2022-12-29T10:44:10.629Z,4.57
2022-12-29T10:46:38.936Z,4.87
2022-12-29T10:49:07.530Z,11.37
2022-12-29T10:51:36.886Z,4.70
2022-12-29T10:54:05.418Z,5.27
2022-12-29T10:56:34.606Z,4.00
2022-12-29T10:59:04.793Z,9.63
2022-12-29T11:01:36.632Z,7.00
2022-12-29T11:04:04.901Z,8.43
2022-12-29T11:06:32.025Z,8.87
2022-12-29T11:09:00.124Z,2.17
2022-12-29T11:11:28.922Z,2.83
2022-12-29T11:14:00.334Z,6.43
2022-12-29T11:16:31.290Z,6.37
2022-12-29T11:19:00.006Z,6.33
2022-12-29T11:21:29.355Z,5.37
2022-12-29T11:23:57.877Z,9.13
2022-12-29T11:26:31.776Z,2.37
2022-12-29T11:29:16.286Z,4.60
2022-12-29T11:31:43.780Z,5.90
2022-12-29T11:34:18.071Z,5.83
2022-12-29T11:36:45.247Z,4.13
2022-12-29T11:39:22.851Z,7.20
2022-12-29T11:41:53.017Z,8.13
2022-12-29T11:44:20.191Z,9.40
2022-12-29T11:46:48.055Z,8.43
2022-12-29T11:49:20.464Z,9.73
2022-12-29T11:51:48.997Z,11.00
2022-12-29T11:54:19.027Z,5.87
2022-12-29T11:56:46.269Z,10.03
2022-12-29T11:59:25.739Z,6.00
2022-12-29T12:01:52.914Z,9.77
2022-12-29T12:04:23.236Z,7.70
2022-12-29T12:06:53.128Z,7.67
2022-12-29T12:09:23.662Z,5.60
2022-12-29T12:11:53.786Z,5.57
2022-12-29T12:14:22.549Z,8.83
2022-12-29T12:17:11.388Z,11.97
2022-12-29T12:19:42.174Z,3.70
2022-12-29T12:22:12.710Z,9.43
2022-12-29T12:24:43.625Z,7.53
2022-12-29T12:27:13.997Z,3.67
2022-12-29T12:29:44.797Z,6.63
2022-12-29T12:32:15.270Z,7.43
2022-12-29T12:34:44.823Z,7.13
2022-12-29T12:37:27.412Z,2.77
2022-12-29T12:40:03.807Z,4.27
2022-12-29T12:42:39.306Z,9.63
2022-12-29T12:45:29.152Z,8.97
2022-12-29T12:48:01.970Z,7.30
2022-12-29T12:50:38.220Z,14.67
2022-12-29T12:53:12.360Z,11.80
2022-12-29T12:55:45.363Z,6.43
2022-12-29T12:58:17.319Z,9.53
2022-12-29T13:00:49.666Z,8.53
2022-12-29T13:03:23.238Z,5.97
2022-12-29T13:06:02.417Z,5.53
2022-12-29T13:08:39.250Z,6.40
2022-12-29T13:11:12.866Z,5.23
2022-12-29T13:14:01.146Z,6.30
2022-12-29T13:16:33.397Z,5.10
2022-12-29T13:19:02.338Z,2.07
2022-12-29T13:21:36.102Z,7.20
2022-12-29T13:24:07.789Z,10.63
2022-12-29T13:26:37.294Z,7.40
2022-12-29T13:29:08.116Z,6.63
2022-12-29T13:31:39.174Z,8.30
2022-12-29T13:34:13.103Z,12.43
2022-12-29T13:36:44.010Z,7.43
2022-12-29T13:39:16.198Z,5.33
2022-12-29T13:41:48.803Z,8.67
2022-12-29T13:44:17.830Z,9.47
2022-12-29T13:46:46.482Z,4.60
2022-12-29T13:49:15.664Z,4.83
2022-12-29T13:51:44.894Z,5.60
2022-12-29T13:54:16.453Z,4.83
2022-12-29T13:56:47.449Z,2.97
2022-12-29T13:59:19.204Z,5.20
2022-12-29T14:01:50.153Z,4.80
2022-12-29T14:04:24.320Z,8.77
2022-12-29T14:07:02.256Z,6.83
2022-12-29T14:09:44.266Z,9.33
2022-12-29T14:12:21.470Z,4.20
2022-12-29T14:14:48.636Z,6.60
2022-12-29T14:17:20.698Z,7.83
2022-12-29T14:19:48.203Z,1.67
2022-12-29T14:22:27.563Z,1.50
2022-12-29T14:24:59.690Z,7.23
2022-12-29T14:27:46.078Z,3.77
2022-12-29T14:30:30.861Z,4.30
2022-12-29T14:33:05.382Z,4.83
2022-12-29T14:35:40.328Z,4.37
2022-12-29T14:38:16.354Z,3.07
2022-12-29T14:40:43.515Z,4.00
2022-12-29T14:43:14.207Z,4.20
2022-12-29T14:45:42.384Z,3.87
2022-12-29T14:48:23.182Z,9.63
2022-12-29T14:50:50.308Z,3.40
2022-12-29T14:53:32.327Z,6.33
2022-12-29T14:56:01.431Z,10.03
2022-12-29T14:58:29.525Z,6.63
2022-12-29T15:00:56.998Z,9.47
2022-12-29T15:03:25.608Z,4.97
2022-12-29T15:05:53.248Z,4.43
2022-12-29T15:08:22.521Z,5.13
2022-12-29T15:10:53.168Z,2.27
2022-12-29T15:13:24.742Z,8.70
2022-12-29T15:15:51.913Z,3.80
2022-12-29T15:18:24.438Z,8.90
2022-12-29T15:20:53.367Z,9.90
2022-12-29T15:23:20.970Z,5.70
2022-12-29T15:25:49.659Z,4.03
2022-12-29T15:28:16.917Z,6.53
2022-12-29T15:30:53.457Z,8.63
2022-12-29T15:33:21.248Z,6.93
2022-12-29T15:35:51.645Z,3.90
2022-12-29T15:38:29.738Z,7.30
2022-12-29T15:41:01.826Z,6.10
2022-12-29T15:43:35.265Z,3.10
2022-12-29T15:46:03.987Z,5.57
2022-12-29T15:48:31.931Z,5.60
2022-12-29T15:50:59.072Z,2.63
2022-12-29T15:53:27.691Z,8.13
2022-12-29T15:55:59.834Z,9.33
2022-12-29T15:58:30.920Z,5.00
2022-12-29T16:00:59.071Z,4.70
2022-12-29T16:03:28.926Z,6.13
2022-12-29T16:05:57.190Z,4.37
2022-12-29T16:08:29.760Z,4.10
2022-12-29T16:10:57.085Z,3.00
2022-12-29T16:13:27.093Z,9.27
2022-12-29T16:15:57.411Z,7.70
2022-12-29T16:18:26.145Z,10.87
2022-12-29T16:20:54.996Z,6.63
2022-12-29T16:23:24.245Z,11.47
2022-12-29T16:25:51.587Z,10.20
2022-12-29T16:28:20.331Z,10.60
2022-12-29T16:30:47.894Z,7.37
2022-12-29T16:33:31.199Z,4.73
2022-12-29T16:35:59.661Z,3.30
2022-12-29T16:38:32.630Z,5.73
2022-12-29T16:41:00.671Z,6.57
2022-12-29T16:43:29.011Z,6.10
2022-12-29T16:46:13.957Z,4.80
2022-12-29T16:48:47.473Z,4.67
2022-12-29T16:51:17.463Z,8.70
2022-12-29T16:53:49.675Z,11.70
2022-12-29T16:56:18.117Z,7.00
2022-12-29T16:58:49.116Z,6.57
2022-12-29T17:01:16.651Z,11.93
2022-12-29T17:03:45.339Z,6.57
2022-12-29T17:06:16.585Z,4.90
2022-12-29T17:08:44.831Z,8.13
2022-12-29T17:11:20.825Z,14.63
2022-12-29T17:13:48.040Z,13.97
2022-12-29T17:16:15.162Z,11.33
2022-12-29T17:18:42.353Z,19.00
2022-12-29T17:21:09.560Z,12.47
2022-12-29T17:23:38.041Z,4.10
2022-12-29T17:26:05.274Z,9.83
2022-12-29T17:28:33.245Z,5.13
2022-12-29T17:31:01.777Z,9.63
2022-12-29T17:33:30.317Z,8.67
2022-12-29T17:35:57.456Z,13.87
2022-12-29T17:38:28.430Z,9.70
2022-12-29T17:40:57.120Z,9.07
2022-12-29T17:43:24.439Z,6.40
2022-12-29T17:45:53.497Z,7.87
2022-12-29T17:48:20.873Z,12.90
2022-12-29T17:50:48.961Z,9.60
2022-12-29T17:53:16.824Z,12.47
2022-12-29T17:55:43.974Z,8.80
2022-12-29T17:58:22.044Z,9.40
2022-12-29T18:00:49.928Z,14.70
2022-12-29T18:03:17.492Z,10.67
2022-12-29T18:05:45.220Z,6.70
2022-12-29T18:08:12.693Z,15.10
2022-12-29T18:10:40.152Z,10.20
2022-12-29T18:13:07.546Z,10.43
2022-12-29T18:15:36.674Z,9.27
2022-12-29T18:18:10.628Z,10.13
2022-12-29T18:20:37.869Z,10.03
2022-12-29T18:23:04.984Z,10.00
2022-12-29T18:25:38.827Z,14.20
2022-12-29T18:28:05.948Z,7.30
2022-12-29T18:30:33.090Z,20.50
2022-12-29T18:33:01.627Z,13.53
2022-12-29T18:35:33.245Z,11.93
2022-12-29T18:38:00.367Z,13.33
2022-12-29T18:40:27.466Z,22.70
2022-12-29T18:42:54.610Z,14.83
2022-12-29T18:45:22.594Z,11.43
2022-12-29T18:47:49.948Z,8.90
2022-12-29T18:50:18.776Z,12.23
2022-12-29T18:52:46.356Z,15.63
2022-12-29T18:55:14.001Z,11.53
2022-12-29T18:57:41.144Z,18.37
2022-12-29T19:00:09.156Z,8.87
2022-12-29T19:02:36.304Z,8.60
2022-12-29T19:05:07.480Z,10.70
2022-12-29T19:07:37.221Z,7.73
2022-12-29T19:10:04.687Z,11.97
2022-12-29T19:12:31.816Z,16.00
2022-12-29T19:14:58.900Z,11.60
2022-12-29T19:17:26.020Z,4.43
2022-12-29T19:19:53.178Z,25.20
2022-12-29T19:22:20.309Z,10.87
2022-12-29T19:24:48.819Z,8.13
2022-12-29T19:27:15.916Z,10.33
2022-12-29T19:29:43.040Z,9.93
2022-12-29T19:32:10.185Z,8.30
2022-12-29T19:34:37.293Z,11.90
2022-12-29T19:37:04.459Z,6.13
2022-12-29T19:39:31.557Z,15.70
2022-12-29T19:42:05.213Z,7.73
2022-12-29T19:44:32.751Z,8.83
2022-12-29T19:46:59.870Z,8.83
2022-12-29T19:49:27.056Z,7.50
2022-12-29T19:51:54.188Z,9.93
2022-12-29T19:54:21.325Z,7.23
2022-12-29T19:56:48.804Z,9.10
2022-12-29T19:59:17.268Z,9.07
2022-12-29T20:01:44.546Z,9.97
2022-12-29T20:04:11.821Z,12.97
2022-12-29T20:06:38.971Z,10.50
2022-12-29T20:09:06.179Z,5.97
2022-12-29T20:11:33.328Z,9.97
2022-12-29T20:14:00.469Z,16.80
2022-12-29T20:16:29.060Z,13.70
2022-12-29T20:18:56.621Z,18.17
2022-12-29T20:21:24.793Z,5.57
2022-12-29T20:23:52.731Z,9.53
2022-12-29T20:26:21.243Z,13.10
2022-12-29T20:28:48.725Z,13.47
2022-12-29T20:31:17.080Z,6.87
2022-12-29T20:33:45.960Z,8.60
2022-12-29T20:36:14.102Z,14.27
2022-12-29T20:38:41.781Z,10.83
2022-12-29T20:41:08.959Z,15.10
2022-12-29T20:43:36.082Z,8.40
2022-12-29T20:46:03.260Z,20.83
2022-12-29T20:48:30.516Z,11.13
2022-12-29T20:50:59.002Z,9.87
2022-12-29T20:53:26.396Z,15.73
2022-12-29T20:55:53.535Z,8.77
2022-12-29T20:58:24.597Z,12.37
2022-12-29T21:00:52.473Z,10.00
2022-12-29T21:03:19.714Z,6.87
2022-12-29T21:05:47.046Z,11.70
2022-12-29T21:08:15.504Z,15.67
2022-12-29T21:10:45.802Z,8.27
2022-12-29T21:13:12.969Z,13.00
2022-12-29T21:15:40.091Z,14.70
2022-12-29T21:18:07.233Z,12.10
2022-12-29T21:20:34.373Z,11.37
2022-12-29T21:23:02.080Z,9.50
2022-12-29T21:25:31.153Z,8.63
2022-12-29T21:27:58.293Z,13.93
2022-12-29T21:30:25.408Z,7.33
2022-12-29T21:32:52.610Z,18.93
2022-12-29T21:35:19.692Z,30.97
2022-12-29T21:37:46.840Z,4.80
2022-12-29T21:40:13.937Z,17.20
2022-12-29T21:42:42.456Z,8.03
2022-12-29T21:45:12.902Z,11.83
2022-12-29T21:47:42.455Z,7.33
2022-12-29T21:50:09.637Z,8.30
2022-12-29T21:52:36.743Z,13.93
2022-12-29T21:55:03.950Z,12.13
2022-12-29T21:57:31.059Z,12.10
2022-12-29T21:59:59.538Z,10.30
2022-12-29T22:02:27.610Z,14.00
2022-12-29T22:04:54.867Z,6.90
2022-12-29T22:07:22.017Z,13.97
2022-12-29T22:09:49.180Z,12.00
2022-12-29T22:12:16.342Z,10.60
2022-12-29T22:14:43.456Z,33.93
2022-12-29T22:17:14.309Z,6.33
2022-12-29T22:19:41.747Z,10.40
2022-12-29T22:22:08.920Z,15.77
2022-12-29T22:24:36.044Z,17.30
2022-12-29T22:27:03.183Z,12.60
2022-12-29T22:29:30.313Z,12.97
2022-12-29T22:31:57.415Z,11.40
2022-12-29T22:34:25.900Z,7.67
2022-12-29T22:36:53.008Z,13.40
2022-12-29T22:39:20.136Z,9.03
2022-12-29T22:41:47.266Z,17.87
2022-12-29T22:44:14.388Z,14.03
2022-12-29T22:46:41.618Z,10.17
2022-12-29T22:49:08.851Z,6.33
2022-12-29T22:51:37.331Z,12.07
2022-12-29T22:54:04.555Z,12.20
2022-12-29T22:56:31.639Z,8.60
2022-12-29T22:58:58.791Z,19.53
2022-12-29T23:01:26.044Z,10.93
2022-12-29T23:03:53.312Z,9.80
2022-12-29T23:06:20.447Z,12.60
2022-12-29T23:08:48.939Z,11.90
2022-12-29T23:11:16.066Z,4.93
2022-12-29T23:13:43.236Z,13.67
2022-12-29T23:16:10.545Z,8.73
2022-12-29T23:18:37.807Z,6.73
2022-12-29T23:21:04.986Z,9.20
2022-12-29T23:23:32.107Z,9.90
2022-12-29T23:26:02.119Z,11.60
2022-12-29T23:28:29.213Z,7.37
2022-12-29T23:30:57.491Z,11.73
2022-12-29T23:33:24.605Z,5.63
2022-12-29T23:35:51.716Z,15.83
2022-12-29T23:38:18.904Z,10.93
2022-12-29T23:40:46.045Z,14.07
2022-12-29T23:43:14.520Z,18.43
2022-12-29T23:45:46.012Z,20.00
2022-12-29T23:48:16.111Z,8.43
2022-12-29T23:50:43.289Z,12.10
2022-12-29T23:53:10.813Z,12.23
2022-12-29T23:55:39.141Z,10.97
2022-12-29T23:58:06.308Z,9.33
